createdAt,value
2022-10-30T00:17:30.203Z,12.02
2022-10-30T00:37:25.371Z,11.9
2022-10-30T00:57:29.526Z,11.79
2022-10-30T01:17:31.340Z,11.73
2022-10-30T01:38:17.971Z,11.76
2022-10-30T01:58:49.207Z,11.81
2022-10-30T02:19:05.332Z,11.82
2022-10-30T02:36:55.576Z,11.88
2022-10-30T02:57:40.634Z,11.92
2022-10-30T03:18:07.427Z,11.9
2022-10-30T03:37:35.399Z,11.91
2022-10-30T03:58:11.653Z,11.88
2022-10-30T04:18:03.356Z,11.85
2022-10-30T04:37:49.207Z,11.82
2022-10-30T04:57:54.390Z,11.78
2022-10-30T05:18:56.926Z,11.69
2022-10-30T05:38:56.571Z,11.52
2022-10-30T05:59:01.082Z,11.25
2022-10-30T06:18:18.654Z,10.95
2022-10-30T06:37:50.241Z,10.77
2022-10-30T06:58:43.701Z,10.72
2022-10-30T07:19:04.638Z,10.81
2022-10-30T07:37:53.662Z,11.05
2022-10-30T07:58:45.152Z,11.9
2022-10-30T08:18:29.537Z,12.59
2022-10-30T08:39:10.829Z,13.45
2022-10-30T08:59:11.873Z,14.21
2022-10-30T09:18:58.379Z,14.7
2022-10-30T09:38:34.606Z,15.33
2022-10-30T09:58:49.428Z,16.11
2022-10-30T10:18:09.335Z,16.91
2022-10-30T10:38:20.064Z,17.85
2022-10-30T10:57:53.701Z,19.55
2022-10-30T11:19:05.478Z,20.79
2022-10-30T11:38:56.305Z,22.17
2022-10-30T11:58:54.087Z,22.44
2022-10-30T12:17:50.337Z,22.56
2022-10-30T12:38:39.138Z,22.7
2022-10-30T12:57:31.551Z,23.1
2022-10-30T13:17:47.418Z,23.78
2022-10-30T13:37:56.560Z,24.12
2022-10-30T13:58:37.124Z,23.77
2022-10-30T14:18:19.714Z,23.23
2022-10-30T14:37:16.109Z,22.15
2022-10-30T14:58:43.733Z,20.87
2022-10-30T15:18:48.209Z,19.66
2022-10-30T15:38:44.641Z,18.54
2022-10-30T15:58:31.936Z,17.47
2022-10-30T16:18:10.606Z,16.55
2022-10-30T16:38:14.495Z,15.7
2022-10-30T16:58:29.555Z,15.06
2022-10-30T17:17:25.941Z,14.56
2022-10-30T17:38:42.492Z,14.13
2022-10-30T17:58:30.397Z,13.83
2022-10-30T18:19:05.011Z,13.54
2022-10-30T18:38:19.403Z,13.34
2022-10-30T18:58:26.880Z,13.1
2022-10-30T19:18:24.178Z,12.8
2022-10-30T19:38:28.636Z,12.55
2022-10-30T19:58:14.673Z,12.28
2022-10-30T20:17:37.114Z,12.04
2022-10-30T20:38:34.017Z,11.81
2022-10-30T20:58:45.054Z,11.58
2022-10-30T21:18:14.353Z,11.38
2022-10-30T21:38:22.442Z,11.26
2022-10-30T21:57:43.750Z,11.1
2022-10-30T22:18:12.693Z,10.87
2022-10-30T22:38:33.993Z,10.61
2022-10-30T22:58:50.921Z,10.42
2022-10-30T23:17:19.818Z,10.18
2022-10-30T23:38:11.097Z,10.05
2022-10-30T23:58:33.619Z,9.86
